sensor_id;sensor_type;location;lat;lon;timestamp;P1;durP1;ratioP1;P2;durP2;ratioP2
1404;SDS011;697;51.114;6.542;2023-02-20T00:02:18;11.33;;;7.90;;
1404;SDS011;697;51.114;6.542;2023-02-20T00:04:45;10.40;;;7.80;;
1404;SDS011;697;51.114;6.542;2023-02-20T00:07:12;13.93;;;10.03;;
1404;SDS011;697;51.114;6.542;2023-02-20T00:09:39;16.30;;;9.33;;
1404;SDS011;697;51.114;6.542;2023-02-20T00:12:06;10.50;;;8.47;;
1404;SDS011;697;51.114;6.542;2023-02-20T00:14:33;15.20;;;9.40;;
1404;SDS011;697;51.114;6.542;2023-02-20T00:17:01;13.00;;;9.20;;
1404;SDS011;697;51.114;6.542;2023-02-20T00:19:29;14.30;;;8.80;;
1404;SDS011;697;51.114;6.542;2023-02-20T00:21:55;15.47;;;8.90;;
1404;SDS011;697;51.114;6.542;2023-02-20T00:24:22;12.33;;;9.13;;
1404;SDS011;697;51.114;6.542;2023-02-20T00:26:49;11.83;;;8.90;;
1404;SDS011;697;51.114;6.542;2023-02-20T00:29:18;12.07;;;9.87;;
1404;SDS011;697;51.114;6.542;2023-02-20T00:31:49;15.63;;;9.00;;
1404;SDS011;697;51.114;6.542;2023-02-20T00:34:19;11.57;;;9.63;;
1404;SDS011;697;51.114;6.542;2023-02-20T00:36:45;13.50;;;10.60;;
1404;SDS011;697;51.114;6.542;2023-02-20T00:39:12;10.70;;;8.33;;
1404;SDS011;697;51.114;6.542;2023-02-20T00:41:41;12.70;;;9.77;;
1404;SDS011;697;51.114;6.542;2023-02-20T00:44:08;11.87;;;8.87;;
1404;SDS011;697;51.114;6.542;2023-02-20T00:46:35;14.80;;;8.43;;
1404;SDS011;697;51.114;6.542;2023-02-20T00:49:02;15.10;;;9.00;;
1404;SDS011;697;51.114;6.542;2023-02-20T00:51:30;13.10;;;8.97;;
1404;SDS011;697;51.114;6.542;2023-02-20T00:53:57;11.33;;;9.30;;
1404;SDS011;697;51.114;6.542;2023-02-20T00:56:24;15.43;;;9.90;;
1404;SDS011;697;51.114;6.542;2023-02-20T00:58:51;15.00;;;9.27;;
1404;SDS011;697;51.114;6.542;2023-02-20T01:01:17;16.63;;;8.77;;
1404;SDS011;697;51.114;6.542;2023-02-20T01:03:44;14.97;;;10.67;;
1404;SDS011;697;51.114;6.542;2023-02-20T01:06:11;18.10;;;9.57;;
1404;SDS011;697;51.114;6.542;2023-02-20T01:08:39;17.23;;;8.90;;
1404;SDS011;697;51.114;6.542;2023-02-20T01:11:05;12.17;;;8.60;;
1404;SDS011;697;51.114;6.542;2023-02-20T01:13:32;10.27;;;8.13;;
1404;SDS011;697;51.114;6.542;2023-02-20T01:15:59;11.33;;;9.10;;
1404;SDS011;697;51.114;6.542;2023-02-20T01:18:26;14.80;;;8.30;;
1404;SDS011;697;51.114;6.542;2023-02-20T01:20:53;12.37;;;10.57;;
1404;SDS011;697;51.114;6.542;2023-02-20T01:23:19;12.83;;;10.83;;
1404;SDS011;697;51.114;6.542;2023-02-20T01:25:47;13.10;;;8.70;;
1404;SDS011;697;51.114;6.542;2023-02-20T01:28:14;13.40;;;9.90;;
1404;SDS011;697;51.114;6.542;2023-02-20T01:30:41;15.50;;;10.37;;
1404;SDS011;697;51.114;6.542;2023-02-20T01:33:08;13.03;;;9.43;;
1404;SDS011;697;51.114;6.542;2023-02-20T01:35:35;15.10;;;11.50;;
1404;SDS011;697;51.114;6.542;2023-02-20T01:38:02;12.90;;;9.93;;
1404;SDS011;697;51.114;6.542;2023-02-20T01:40:31;14.13;;;9.70;;
1404;SDS011;697;51.114;6.542;2023-02-20T01:43:00;16.47;;;10.17;;
1404;SDS011;697;51.114;6.542;2023-02-20T01:45:29;12.73;;;10.53;;
1404;SDS011;697;51.114;6.542;2023-02-20T01:47:59;15.33;;;11.47;;
1404;SDS011;697;51.114;6.542;2023-02-20T01:50:28;20.10;;;10.77;;
1404;SDS011;697;51.114;6.542;2023-02-20T01:52:58;17.63;;;11.83;;
1404;SDS011;697;51.114;6.542;2023-02-20T01:55:28;18.20;;;11.97;;
1404;SDS011;697;51.114;6.542;2023-02-20T01:57:59;19.03;;;12.27;;
1404;SDS011;697;51.114;6.542;2023-02-20T02:00:30;15.13;;;11.33;;
1404;SDS011;697;51.114;6.542;2023-02-20T02:02:58;16.83;;;12.03;;
1404;SDS011;697;51.114;6.542;2023-02-20T02:05:28;17.70;;;11.87;;
1404;SDS011;697;51.114;6.542;2023-02-20T02:07:56;16.90;;;11.90;;
1404;SDS011;697;51.114;6.542;2023-02-20T02:10:25;22.43;;;13.13;;
1404;SDS011;697;51.114;6.542;2023-02-20T02:12:57;19.77;;;13.47;;
1404;SDS011;697;51.114;6.542;2023-02-20T02:15:25;16.23;;;11.37;;
1404;SDS011;697;51.114;6.542;2023-02-20T02:17:56;16.47;;;11.37;;
1404;SDS011;697;51.114;6.542;2023-02-20T02:20:41;16.40;;;11.37;;
1404;SDS011;697;51.114;6.542;2023-02-20T02:26:37;19.47;;;11.53;;
1404;SDS011;697;51.114;6.542;2023-02-20T02:32:13;18.83;;;12.10;;
1404;SDS011;697;51.114;6.542;2023-02-20T02:35:04;16.33;;;11.30;;
1404;SDS011;697;51.114;6.542;2023-02-20T02:37:52;17.90;;;10.37;;
1404;SDS011;697;51.114;6.542;2023-02-20T02:40:27;15.67;;;10.47;;
1404;SDS011;697;51.114;6.542;2023-02-20T02:43:05;19.60;;;11.33;;
1404;SDS011;697;51.114;6.542;2023-02-20T02:45:37;15.93;;;10.33;;
1404;SDS011;697;51.114;6.542;2023-02-20T02:48:12;17.20;;;11.20;;
1404;SDS011;697;51.114;6.542;2023-02-20T02:50:44;18.80;;;11.37;;
1404;SDS011;697;51.114;6.542;2023-02-20T02:53:14;17.33;;;10.83;;
1404;SDS011;697;51.114;6.542;2023-02-20T02:55:41;15.53;;;9.93;;
1404;SDS011;697;51.114;6.542;2023-02-20T02:58:08;15.03;;;10.10;;
1404;SDS011;697;51.114;6.542;2023-02-20T03:00:37;15.93;;;9.40;;
1404;SDS011;697;51.114;6.542;2023-02-20T03:03:07;19.80;;;9.80;;
1404;SDS011;697;51.114;6.542;2023-02-20T03:05:39;14.20;;;8.90;;
1404;SDS011;697;51.114;6.542;2023-02-20T03:08:13;15.20;;;8.80;;
1404;SDS011;697;51.114;6.542;2023-02-20T03:10:55;17.80;;;9.97;;
1404;SDS011;697;51.114;6.542;2023-02-20T03:13:25;14.90;;;9.00;;
1404;SDS011;697;51.114;6.542;2023-02-20T03:16:13;19.20;;;8.20;;
1404;SDS011;697;51.114;6.542;2023-02-20T03:18:43;14.23;;;8.33;;
1404;SDS011;697;51.114;6.542;2023-02-20T03:21:14;13.73;;;7.50;;
1404;SDS011;697;51.114;6.542;2023-02-20T03:23:46;12.97;;;8.17;;
1404;SDS011;697;51.114;6.542;2023-02-20T03:26:24;12.77;;;7.90;;
1404;SDS011;697;51.114;6.542;2023-02-20T03:28:55;13.97;;;7.80;;
1404;SDS011;697;51.114;6.542;2023-02-20T03:31:27;13.77;;;8.13;;
1404;SDS011;697;51.114;6.542;2023-02-20T03:34:00;15.50;;;7.60;;
1404;SDS011;697;51.114;6.542;2023-02-20T03:36:49;16.93;;;7.90;;
1404;SDS011;697;51.114;6.542;2023-02-20T03:39:40;12.67;;;7.40;;
1404;SDS011;697;51.114;6.542;2023-02-20T03:42:28;12.03;;;6.37;;
1404;SDS011;697;51.114;6.542;2023-02-20T03:45:16;10.60;;;6.53;;
1404;SDS011;697;51.114;6.542;2023-02-20T03:47:48;10.67;;;6.50;;
1404;SDS011;697;51.114;6.542;2023-02-20T03:50:18;10.73;;;6.53;;
1404;SDS011;697;51.114;6.542;2023-02-20T03:53:03;14.50;;;8.00;;
1404;SDS011;697;51.114;6.542;2023-02-20T03:55:31;11.90;;;6.77;;
1404;SDS011;697;51.114;6.542;2023-02-20T03:57:59;14.57;;;6.40;;
1404;SDS011;697;51.114;6.542;2023-02-20T04:00:31;14.50;;;6.67;;
1404;SDS011;697;51.114;6.542;2023-02-20T04:03:02;10.27;;;5.47;;
1404;SDS011;697;51.114;6.542;2023-02-20T04:05:36;11.63;;;5.90;;
1404;SDS011;697;51.114;6.542;2023-02-20T04:08:09;8.23;;;5.47;;
1404;SDS011;697;51.114;6.542;2023-02-20T04:10:40;9.40;;;5.57;;
1404;SDS011;697;51.114;6.542;2023-02-20T04:13:10;11.00;;;5.60;;
1404;SDS011;697;51.114;6.542;2023-02-20T04:15:39;11.20;;;4.60;;
1404;SDS011;697;51.114;6.542;2023-02-20T04:18:07;11.33;;;5.40;;
1404;SDS011;697;51.114;6.542;2023-02-20T04:20:38;12.70;;;6.57;;
1404;SDS011;697;51.114;6.542;2023-02-20T04:23:06;14.40;;;6.43;;
1404;SDS011;697;51.114;6.542;2023-02-20T04:25:41;7.73;;;4.67;;
1404;SDS011;697;51.114;6.542;2023-02-20T04:28:11;10.60;;;5.43;;
1404;SDS011;697;51.114;6.542;2023-02-20T04:30:38;8.20;;;4.93;;
1404;SDS011;697;51.114;6.542;2023-02-20T04:33:05;7.93;;;4.97;;
1404;SDS011;697;51.114;6.542;2023-02-20T04:35:33;12.40;;;5.37;;
1404;SDS011;697;51.114;6.542;2023-02-20T04:38:00;8.10;;;4.60;;
1404;SDS011;697;51.114;6.542;2023-02-20T04:40:26;7.20;;;4.17;;
1404;SDS011;697;51.114;6.542;2023-02-20T04:42:55;15.37;;;5.40;;
1404;SDS011;697;51.114;6.542;2023-02-20T04:45:21;9.37;;;4.13;;
1404;SDS011;697;51.114;6.542;2023-02-20T04:47:48;8.00;;;4.87;;
1404;SDS011;697;51.114;6.542;2023-02-20T04:50:15;10.30;;;3.90;;
1404;SDS011;697;51.114;6.542;2023-02-20T04:52:45;16.97;;;4.63;;
1404;SDS011;697;51.114;6.542;2023-02-20T04:55:12;9.07;;;4.30;;
1404;SDS011;697;51.114;6.542;2023-02-20T04:57:40;9.30;;;4.07;;
1404;SDS011;697;51.114;6.542;2023-02-20T05:00:09;8.00;;;4.30;;
1404;SDS011;697;51.114;6.542;2023-02-20T05:02:37;11.20;;;4.20;;
1404;SDS011;697;51.114;6.542;2023-02-20T05:05:05;11.07;;;4.93;;
1404;SDS011;697;51.114;6.542;2023-02-20T05:07:39;9.10;;;4.57;;
1404;SDS011;697;51.114;6.542;2023-02-20T05:10:06;7.10;;;4.37;;
1404;SDS011;697;51.114;6.542;2023-02-20T05:12:33;14.17;;;5.07;;
1404;SDS011;697;51.114;6.542;2023-02-20T05:15:00;8.87;;;4.83;;
1404;SDS011;697;51.114;6.542;2023-02-20T05:17:29;10.33;;;4.23;;
1404;SDS011;697;51.114;6.542;2023-02-20T05:19:56;8.53;;;4.00;;
1404;SDS011;697;51.114;6.542;2023-02-20T05:22:22;8.63;;;4.90;;
1404;SDS011;697;51.114;6.542;2023-02-20T05:24:49;8.70;;;4.30;;
1404;SDS011;697;51.114;6.542;2023-02-20T05:27:17;10.47;;;4.67;;
1404;SDS011;697;51.114;6.542;2023-02-20T05:29:45;14.80;;;4.80;;
1404;SDS011;697;51.114;6.542;2023-02-20T05:32:12;11.20;;;4.10;;
1404;SDS011;697;51.114;6.542;2023-02-20T05:34:42;11.70;;;4.93;;
1404;SDS011;697;51.114;6.542;2023-02-20T05:37:09;10.17;;;4.70;;
1404;SDS011;697;51.114;6.542;2023-02-20T05:39:37;7.13;;;4.73;;
1404;SDS011;697;51.114;6.542;2023-02-20T05:42:04;8.67;;;5.57;;
1404;SDS011;697;51.114;6.542;2023-02-20T05:44:31;12.63;;;5.17;;
1404;SDS011;697;51.114;6.542;2023-02-20T05:46:58;9.23;;;4.70;;
1404;SDS011;697;51.114;6.542;2023-02-20T05:49:25;9.13;;;5.70;;
1404;SDS011;697;51.114;6.542;2023-02-20T05:51:56;12.33;;;5.47;;
1404;SDS011;697;51.114;6.542;2023-02-20T05:54:23;12.33;;;5.23;;
1404;SDS011;697;51.114;6.542;2023-02-20T05:56:50;10.60;;;5.53;;
1404;SDS011;697;51.114;6.542;2023-02-20T05:59:19;9.73;;;5.70;;
1404;SDS011;697;51.114;6.542;2023-02-20T06:01:47;12.97;;;6.40;;
1404;SDS011;697;51.114;6.542;2023-02-20T06:04:16;14.00;;;6.70;;
1404;SDS011;697;51.114;6.542;2023-02-20T06:06:43;9.30;;;5.70;;
1404;SDS011;697;51.114;6.542;2023-02-20T06:09:12;13.47;;;7.00;;
1404;SDS011;697;51.114;6.542;2023-02-20T06:11:41;12.10;;;6.73;;
1404;SDS011;697;51.114;6.542;2023-02-20T06:14:14;15.10;;;5.63;;
1404;SDS011;697;51.114;6.542;2023-02-20T06:16:41;15.13;;;6.73;;
1404;SDS011;697;51.114;6.542;2023-02-20T06:19:08;10.00;;;6.83;;
1404;SDS011;697;51.114;6.542;2023-02-20T06:21:35;11.30;;;7.93;;
1404;SDS011;697;51.114;6.542;2023-02-20T06:24:05;12.80;;;8.23;;
1404;SDS011;697;51.114;6.542;2023-02-20T06:26:37;12.50;;;7.73;;
1404;SDS011;697;51.114;6.542;2023-02-20T06:29:05;9.30;;;7.67;;
1404;SDS011;697;51.114;6.542;2023-02-20T06:31:32;9.93;;;7.97;;
1404;SDS011;697;51.114;6.542;2023-02-20T06:34:01;17.20;;;10.77;;
1404;SDS011;697;51.114;6.542;2023-02-20T06:36:28;18.67;;;8.83;;
1404;SDS011;697;51.114;6.542;2023-02-20T06:38:56;16.03;;;9.50;;
1404;SDS011;697;51.114;6.542;2023-02-20T06:41:23;13.60;;;10.03;;
1404;SDS011;697;51.114;6.542;2023-02-20T06:43:51;11.50;;;9.57;;
1404;SDS011;697;51.114;6.542;2023-02-20T06:46:19;16.13;;;10.90;;
1404;SDS011;697;51.114;6.542;2023-02-20T06:48:47;20.73;;;13.40;;
1404;SDS011;697;51.114;6.542;2023-02-20T06:51:15;25.67;;;12.20;;
1404;SDS011;697;51.114;6.542;2023-02-20T06:53:43;28.00;;;15.70;;
1404;SDS011;697;51.114;6.542;2023-02-20T06:56:13;22.33;;;14.10;;
1404;SDS011;697;51.114;6.542;2023-02-20T06:58:44;25.03;;;14.83;;
1404;SDS011;697;51.114;6.542;2023-02-20T07:01:13;20.77;;;15.23;;
1404;SDS011;697;51.114;6.542;2023-02-20T07:03:39;18.83;;;14.67;;
1404;SDS011;697;51.114;6.542;2023-02-20T07:06:06;22.53;;;16.50;;
1404;SDS011;697;51.114;6.542;2023-02-20T07:08:33;24.53;;;16.10;;
1404;SDS011;697;51.114;6.542;2023-02-20T07:11:00;26.23;;;17.03;;
1404;SDS011;697;51.114;6.542;2023-02-20T07:13:26;26.73;;;17.53;;
1404;SDS011;697;51.114;6.542;2023-02-20T07:15:53;25.90;;;15.97;;
1404;SDS011;697;51.114;6.542;2023-02-20T07:18:21;24.60;;;14.83;;
1404;SDS011;697;51.114;6.542;2023-02-20T07:20:50;27.93;;;15.67;;
1404;SDS011;697;51.114;6.542;2023-02-20T07:23:17;26.83;;;18.10;;
1404;SDS011;697;51.114;6.542;2023-02-20T07:25:45;23.47;;;16.77;;
1404;SDS011;697;51.114;6.542;2023-02-20T07:28:13;25.93;;;17.73;;
1404;SDS011;697;51.114;6.542;2023-02-20T07:30:41;34.37;;;18.40;;
1404;SDS011;697;51.114;6.542;2023-02-20T07:33:09;25.37;;;19.10;;
1404;SDS011;697;51.114;6.542;2023-02-20T07:35:37;25.27;;;17.00;;
1404;SDS011;697;51.114;6.542;2023-02-20T07:38:03;22.40;;;16.37;;
1404;SDS011;697;51.114;6.542;2023-02-20T07:40:30;23.27;;;18.03;;
1404;SDS011;697;51.114;6.542;2023-02-20T07:42:57;22.83;;;17.17;;
1404;SDS011;697;51.114;6.542;2023-02-20T07:45:24;23.20;;;15.80;;
1404;SDS011;697;51.114;6.542;2023-02-20T07:47:51;21.70;;;17.33;;
1404;SDS011;697;51.114;6.542;2023-02-20T07:50:18;24.83;;;16.23;;
1404;SDS011;697;51.114;6.542;2023-02-20T07:52:46;25.33;;;16.83;;
1404;SDS011;697;51.114;6.542;2023-02-20T07:55:14;22.13;;;16.47;;
1404;SDS011;697;51.114;6.542;2023-02-20T07:57:41;25.53;;;15.73;;
1404;SDS011;697;51.114;6.542;2023-02-20T08:00:12;23.77;;;15.43;;
1404;SDS011;697;51.114;6.542;2023-02-20T08:02:41;20.30;;;13.50;;
1404;SDS011;697;51.114;6.542;2023-02-20T08:05:09;20.30;;;14.63;;
1404;SDS011;697;51.114;6.542;2023-02-20T08:07:47;24.37;;;13.57;;
1404;SDS011;697;51.114;6.542;2023-02-20T08:10:16;19.57;;;13.87;;
1404;SDS011;697;51.114;6.542;2023-02-20T08:12:44;20.07;;;14.80;;
1404;SDS011;697;51.114;6.542;2023-02-20T08:15:12;19.20;;;14.60;;
1404;SDS011;697;51.114;6.542;2023-02-20T08:17:38;20.47;;;14.47;;
1404;SDS011;697;51.114;6.542;2023-02-20T08:20:06;28.63;;;14.23;;
1404;SDS011;697;51.114;6.542;2023-02-20T08:22:34;26.23;;;15.37;;
1404;SDS011;697;51.114;6.542;2023-02-20T08:25:09;23.43;;;14.07;;
1404;SDS011;697;51.114;6.542;2023-02-20T08:27:36;21.07;;;14.40;;
1404;SDS011;697;51.114;6.542;2023-02-20T08:30:10;20.07;;;14.10;;
1404;SDS011;697;51.114;6.542;2023-02-20T08:32:37;18.80;;;12.50;;
1404;SDS011;697;51.114;6.542;2023-02-20T08:35:05;18.80;;;12.57;;
1404;SDS011;697;51.114;6.542;2023-02-20T08:37:33;22.30;;;12.90;;
1404;SDS011;697;51.114;6.542;2023-02-20T08:40:00;17.43;;;12.67;;
1404;SDS011;697;51.114;6.542;2023-02-20T08:42:32;18.50;;;12.40;;
1404;SDS011;697;51.114;6.542;2023-02-20T08:45:01;17.87;;;12.77;;
1404;SDS011;697;51.114;6.542;2023-02-20T08:47:29;17.13;;;13.23;;
1404;SDS011;697;51.114;6.542;2023-02-20T08:49:56;23.10;;;14.30;;
1404;SDS011;697;51.114;6.542;2023-02-20T08:52:23;19.60;;;11.73;;
1404;SDS011;697;51.114;6.542;2023-02-20T08:54:50;21.30;;;12.60;;
1404;SDS011;697;51.114;6.542;2023-02-20T08:57:17;19.07;;;12.70;;
1404;SDS011;697;51.114;6.542;2023-02-20T08:59:45;20.33;;;12.13;;
1404;SDS011;697;51.114;6.542;2023-02-20T09:02:14;16.90;;;12.80;;
1404;SDS011;697;51.114;6.542;2023-02-20T09:04:42;20.67;;;12.60;;
1404;SDS011;697;51.114;6.542;2023-02-20T09:07:09;17.53;;;12.20;;
1404;SDS011;697;51.114;6.542;2023-02-20T09:09:36;15.80;;;11.50;;
1404;SDS011;697;51.114;6.542;2023-02-20T09:12:05;26.23;;;13.13;;
1404;SDS011;697;51.114;6.542;2023-02-20T09:14:32;14.87;;;10.50;;
1404;SDS011;697;51.114;6.542;2023-02-20T09:17:01;18.00;;;11.87;;
1404;SDS011;697;51.114;6.542;2023-02-20T09:19:27;28.50;;;14.07;;
1404;SDS011;697;51.114;6.542;2023-02-20T09:21:54;19.63;;;12.43;;
1404;SDS011;697;51.114;6.542;2023-02-20T09:24:21;18.53;;;12.03;;
1404;SDS011;697;51.114;6.542;2023-02-20T09:26:48;22.60;;;12.50;;
1404;SDS011;697;51.114;6.542;2023-02-20T09:29:15;20.03;;;13.00;;
1404;SDS011;697;51.114;6.542;2023-02-20T09:31:42;17.13;;;12.67;;
1404;SDS011;697;51.114;6.542;2023-02-20T09:34:10;21.83;;;14.17;;
1404;SDS011;697;51.114;6.542;2023-02-20T09:36:37;17.37;;;12.17;;
1404;SDS011;697;51.114;6.542;2023-02-20T09:39:03;15.37;;;12.90;;
1404;SDS011;697;51.114;6.542;2023-02-20T09:41:34;18.07;;;12.83;;
1404;SDS011;697;51.114;6.542;2023-02-20T09:44:11;22.30;;;12.40;;
1404;SDS011;697;51.114;6.542;2023-02-20T09:46:43;17.97;;;12.70;;
1404;SDS011;697;51.114;6.542;2023-02-20T09:49:15;19.93;;;12.30;;
1404;SDS011;697;51.114;6.542;2023-02-20T09:51:48;20.53;;;13.07;;
1404;SDS011;697;51.114;6.542;2023-02-20T09:54:19;20.83;;;13.43;;
1404;SDS011;697;51.114;6.542;2023-02-20T09:56:52;23.40;;;13.27;;
1404;SDS011;697;51.114;6.542;2023-02-20T09:59:23;23.23;;;12.00;;
1404;SDS011;697;51.114;6.542;2023-02-20T10:01:54;18.50;;;12.00;;
1404;SDS011;697;51.114;6.542;2023-02-20T10:04:27;21.90;;;12.20;;
1404;SDS011;697;51.114;6.542;2023-02-20T10:07:01;18.80;;;12.40;;
1404;SDS011;697;51.114;6.542;2023-02-20T10:09:38;19.20;;;12.27;;
1404;SDS011;697;51.114;6.542;2023-02-20T10:12:07;18.47;;;13.30;;
1404;SDS011;697;51.114;6.542;2023-02-20T10:14:53;19.60;;;12.27;;
1404;SDS011;697;51.114;6.542;2023-02-20T10:17:31;20.93;;;12.00;;
1404;SDS011;697;51.114;6.542;2023-02-20T10:20:07;16.20;;;10.97;;
1404;SDS011;697;51.114;6.542;2023-02-20T10:22:41;13.37;;;10.60;;
1404;SDS011;697;51.114;6.542;2023-02-20T10:25:15;16.43;;;11.33;;
1404;SDS011;697;51.114;6.542;2023-02-20T10:27:50;16.07;;;11.57;;
1404;SDS011;697;51.114;6.542;2023-02-20T10:30:21;14.80;;;10.30;;
1404;SDS011;697;51.114;6.542;2023-02-20T10:32:53;16.87;;;10.63;;
1404;SDS011;697;51.114;6.542;2023-02-20T10:35:25;14.57;;;11.60;;
1404;SDS011;697;51.114;6.542;2023-02-20T10:38:00;15.03;;;11.33;;
1404;SDS011;697;51.114;6.542;2023-02-20T10:40:33;15.00;;;10.93;;
1404;SDS011;697;51.114;6.542;2023-02-20T10:43:08;16.30;;;11.77;;
1404;SDS011;697;51.114;6.542;2023-02-20T10:45:48;18.50;;;11.60;;
1404;SDS011;697;51.114;6.542;2023-02-20T10:48:27;15.97;;;9.97;;
1404;SDS011;697;51.114;6.542;2023-02-20T10:51:01;21.10;;;12.47;;
1404;SDS011;697;51.114;6.542;2023-02-20T10:53:35;16.10;;;11.80;;
1404;SDS011;697;51.114;6.542;2023-02-20T10:56:09;15.40;;;10.97;;
1404;SDS011;697;51.114;6.542;2023-02-20T10:58:40;17.40;;;11.57;;
1404;SDS011;697;51.114;6.542;2023-02-20T11:01:12;14.03;;;11.27;;
1404;SDS011;697;51.114;6.542;2023-02-20T11:03:46;14.53;;;11.43;;
1404;SDS011;697;51.114;6.542;2023-02-20T11:06:19;17.27;;;11.27;;
1404;SDS011;697;51.114;6.542;2023-02-20T11:08:48;12.70;;;10.67;;
1404;SDS011;697;51.114;6.542;2023-02-20T11:13:48;19.60;;;10.83;;
1404;SDS011;697;51.114;6.542;2023-02-20T11:16:20;18.13;;;11.27;;
1404;SDS011;697;51.114;6.542;2023-02-20T11:18:52;19.00;;;11.63;;
1404;SDS011;697;51.114;6.542;2023-02-20T11:24:24;17.97;;;12.13;;
1404;SDS011;697;51.114;6.542;2023-02-20T11:26:55;17.40;;;11.73;;
1404;SDS011;697;51.114;6.542;2023-02-20T11:29:39;14.80;;;12.27;;
1404;SDS011;697;51.114;6.542;2023-02-20T11:32:22;29.10;;;12.73;;
1404;SDS011;697;51.114;6.542;2023-02-20T11:35:01;16.30;;;11.27;;
1404;SDS011;697;51.114;6.542;2023-02-20T11:37:46;21.80;;;14.23;;
1404;SDS011;697;51.114;6.542;2023-02-20T11:40:15;14.67;;;12.20;;
1404;SDS011;697;51.114;6.542;2023-02-20T11:42:46;16.63;;;12.17;;
1404;SDS011;697;51.114;6.542;2023-02-20T11:45:15;20.73;;;11.97;;
1404;SDS011;697;51.114;6.542;2023-02-20T11:47:48;21.50;;;12.57;;
1404;SDS011;697;51.114;6.542;2023-02-20T11:50:36;18.20;;;12.00;;
1404;SDS011;697;51.114;6.542;2023-02-20T11:53:05;19.77;;;12.77;;
1404;SDS011;697;51.114;6.542;2023-02-20T11:56:06;18.67;;;13.03;;
1404;SDS011;697;51.114;6.542;2023-02-20T11:58:35;17.20;;;12.00;;
1404;SDS011;697;51.114;6.542;2023-02-20T12:01:02;18.57;;;11.57;;
1404;SDS011;697;51.114;6.542;2023-02-20T12:03:30;16.50;;;11.80;;
1404;SDS011;697;51.114;6.542;2023-02-20T12:05:59;14.10;;;12.60;;
1404;SDS011;697;51.114;6.542;2023-02-20T12:08:33;17.63;;;11.80;;
1404;SDS011;697;51.114;6.542;2023-02-20T12:11:06;16.77;;;12.63;;
1404;SDS011;697;51.114;6.542;2023-02-20T12:13:36;20.00;;;11.50;;
1404;SDS011;697;51.114;6.542;2023-02-20T12:18:59;21.33;;;12.00;;
1404;SDS011;697;51.114;6.542;2023-02-20T12:21:37;17.13;;;12.37;;
1404;SDS011;697;51.114;6.542;2023-02-20T12:24:17;16.33;;;12.23;;
1404;SDS011;697;51.114;6.542;2023-02-20T12:26:55;19.53;;;12.87;;
1404;SDS011;697;51.114;6.542;2023-02-20T12:32:16;20.30;;;14.20;;
1404;SDS011;697;51.114;6.542;2023-02-20T12:37:52;15.73;;;13.50;;
1404;SDS011;697;51.114;6.542;2023-02-20T12:40:36;18.80;;;12.43;;
1404;SDS011;697;51.114;6.542;2023-02-20T12:43:21;24.03;;;12.93;;
1404;SDS011;697;51.114;6.542;2023-02-20T12:45:58;19.37;;;12.47;;
1404;SDS011;697;51.114;6.542;2023-02-20T12:48:35;16.10;;;10.10;;
1404;SDS011;697;51.114;6.542;2023-02-20T12:51:20;17.00;;;13.37;;
1404;SDS011;697;51.114;6.542;2023-02-20T12:53:58;23.67;;;14.23;;
1404;SDS011;697;51.114;6.542;2023-02-20T12:56:48;18.07;;;11.73;;
1404;SDS011;697;51.114;6.542;2023-02-20T12:59:34;17.57;;;12.53;;
1404;SDS011;697;51.114;6.542;2023-02-20T13:02:12;22.57;;;12.53;;
1404;SDS011;697;51.114;6.542;2023-02-20T13:04:50;18.90;;;13.20;;
1404;SDS011;697;51.114;6.542;2023-02-20T13:07:20;20.63;;;13.07;;
1404;SDS011;697;51.114;6.542;2023-02-20T13:09:53;20.97;;;13.13;;
1404;SDS011;697;51.114;6.542;2023-02-20T13:12:28;22.27;;;13.07;;
1404;SDS011;697;51.114;6.542;2023-02-20T13:14:58;21.20;;;12.60;;
1404;SDS011;697;51.114;6.542;2023-02-20T13:17:34;17.13;;;11.97;;
1404;SDS011;697;51.114;6.542;2023-02-20T13:22:56;18.63;;;13.17;;
1404;SDS011;697;51.114;6.542;2023-02-20T13:25:34;26.03;;;14.20;;
1404;SDS011;697;51.114;6.542;2023-02-20T13:28:14;24.83;;;14.23;;
1404;SDS011;697;51.114;6.542;2023-02-20T13:33:34;25.63;;;14.60;;
1404;SDS011;697;51.114;6.542;2023-02-20T13:36:14;24.93;;;14.07;;
1404;SDS011;697;51.114;6.542;2023-02-20T13:41:59;18.10;;;13.03;;
1404;SDS011;697;51.114;6.542;2023-02-20T13:44:44;23.63;;;14.10;;
1404;SDS011;697;51.114;6.542;2023-02-20T13:52:52;20.53;;;12.30;;
1404;SDS011;697;51.114;6.542;2023-02-20T13:55:22;18.10;;;13.13;;
1404;SDS011;697;51.114;6.542;2023-02-20T14:00:40;20.53;;;12.80;;
1404;SDS011;697;51.114;6.542;2023-02-20T14:03:12;24.93;;;12.80;;
1404;SDS011;697;51.114;6.542;2023-02-20T14:05:44;19.27;;;13.20;;
1404;SDS011;697;51.114;6.542;2023-02-20T14:08:15;18.90;;;13.43;;
1404;SDS011;697;51.114;6.542;2023-02-20T14:10:43;20.93;;;12.97;;
1404;SDS011;697;51.114;6.542;2023-02-20T14:13:14;27.07;;;12.73;;
1404;SDS011;697;51.114;6.542;2023-02-20T14:15:45;21.73;;;13.57;;
1404;SDS011;697;51.114;6.542;2023-02-20T14:18:16;22.80;;;13.60;;
1404;SDS011;697;51.114;6.542;2023-02-20T14:20:45;18.30;;;12.23;;
1404;SDS011;697;51.114;6.542;2023-02-20T14:26:16;17.10;;;12.70;;
1404;SDS011;697;51.114;6.542;2023-02-20T14:28:45;17.43;;;12.50;;
1404;SDS011;697;51.114;6.542;2023-02-20T14:31:23;14.43;;;12.23;;
1404;SDS011;697;51.114;6.542;2023-02-20T14:33:51;16.60;;;12.00;;
1404;SDS011;697;51.114;6.542;2023-02-20T14:36:28;16.83;;;13.30;;
1404;SDS011;697;51.114;6.542;2023-02-20T14:39:08;19.30;;;11.50;;
1404;SDS011;697;51.114;6.542;2023-02-20T14:41:52;21.63;;;12.37;;
1404;SDS011;697;51.114;6.542;2023-02-20T14:44:21;22.10;;;11.73;;
1404;SDS011;697;51.114;6.542;2023-02-20T14:46:53;20.97;;;13.60;;
1404;SDS011;697;51.114;6.542;2023-02-20T14:49:23;15.10;;;11.70;;
1404;SDS011;697;51.114;6.542;2023-02-20T14:52:03;18.77;;;13.20;;
1404;SDS011;697;51.114;6.542;2023-02-20T14:54:41;21.93;;;12.40;;
1404;SDS011;697;51.114;6.542;2023-02-20T14:57:11;15.30;;;11.77;;
1404;SDS011;697;51.114;6.542;2023-02-20T14:59:38;15.80;;;12.70;;
1404;SDS011;697;51.114;6.542;2023-02-20T15:02:13;15.80;;;10.83;;
1404;SDS011;697;51.114;6.542;2023-02-20T15:04:46;15.93;;;11.80;;
1404;SDS011;697;51.114;6.542;2023-02-20T15:07:14;19.40;;;12.27;;
1404;SDS011;697;51.114;6.542;2023-02-20T15:09:42;18.60;;;10.40;;
1404;SDS011;697;51.114;6.542;2023-02-20T15:12:20;18.50;;;12.27;;
1404;SDS011;697;51.114;6.542;2023-02-20T15:14:52;20.30;;;14.50;;
1404;SDS011;697;51.114;6.542;2023-02-20T15:17:25;14.83;;;12.80;;
1404;SDS011;697;51.114;6.542;2023-02-20T15:19:53;17.87;;;12.43;;
1404;SDS011;697;51.114;6.542;2023-02-20T15:22:26;16.60;;;12.03;;
1404;SDS011;697;51.114;6.542;2023-02-20T15:25:10;15.57;;;11.23;;
1404;SDS011;697;51.114;6.542;2023-02-20T15:27:39;13.90;;;10.80;;
1404;SDS011;697;51.114;6.542;2023-02-20T15:30:35;21.50;;;11.33;;
1404;SDS011;697;51.114;6.542;2023-02-20T15:33:24;16.30;;;11.80;;
1404;SDS011;697;51.114;6.542;2023-02-20T15:35:52;16.33;;;11.13;;
1404;SDS011;697;51.114;6.542;2023-02-20T15:38:18;18.43;;;11.40;;
1404;SDS011;697;51.114;6.542;2023-02-20T15:40:45;18.17;;;12.43;;
1404;SDS011;697;51.114;6.542;2023-02-20T15:43:13;14.33;;;10.80;;
1404;SDS011;697;51.114;6.542;2023-02-20T15:45:41;19.70;;;12.00;;
1404;SDS011;697;51.114;6.542;2023-02-20T15:48:07;14.93;;;11.07;;
1404;SDS011;697;51.114;6.542;2023-02-20T15:50:35;17.87;;;11.50;;
1404;SDS011;697;51.114;6.542;2023-02-20T15:53:03;15.00;;;11.00;;
1404;SDS011;697;51.114;6.542;2023-02-20T15:55:33;13.70;;;11.40;;
1404;SDS011;697;51.114;6.542;2023-02-20T15:58:01;15.80;;;11.67;;
1404;SDS011;697;51.114;6.542;2023-02-20T16:00:30;13.77;;;11.23;;
1404;SDS011;697;51.114;6.542;2023-02-20T16:02:58;17.50;;;11.00;;
1404;SDS011;697;51.114;6.542;2023-02-20T16:05:26;13.67;;;12.17;;
1404;SDS011;697;51.114;6.542;2023-02-20T16:07:54;18.20;;;11.47;;
1404;SDS011;697;51.114;6.542;2023-02-20T16:10:21;21.57;;;11.97;;
1404;SDS011;697;51.114;6.542;2023-02-20T16:12:49;15.83;;;10.67;;